sensor_id;sensor_type;location;lat;lon;timestamp;P1;durP1;ratioP1;P2;durP2;ratioP2
4023;SDS011;2026;51.002;13.668;2023-04-15T00:02:42;3.70;;;1.83;;
4023;SDS011;2026;51.002;13.668;2023-04-15T00:07:46;1.43;;;1.33;;
4023;SDS011;2026;51.002;13.668;2023-04-15T00:12:50;1.73;;;1.50;;
4023;SDS011;2026;51.002;13.668;2023-04-15T00:17:53;2.10;;;1.67;;
4023;SDS011;2026;51.002;13.668;2023-04-15T00:22:57;1.73;;;1.30;;
4023;SDS011;2026;51.002;13.668;2023-04-15T00:28:02;2.03;;;1.83;;
4023;SDS011;2026;51.002;13.668;2023-04-15T00:33:05;1.43;;;1.33;;
4023;SDS011;2026;51.002;13.668;2023-04-15T00:38:08;1.43;;;1.33;;
4023;SDS011;2026;51.002;13.668;2023-04-15T00:43:13;1.23;;;1.13;;
4023;SDS011;2026;51.002;13.668;2023-04-15T00:48:17;1.20;;;1.10;;
4023;SDS011;2026;51.002;13.668;2023-04-15T00:53:21;1.77;;;1.40;;
4023;SDS011;2026;51.002;13.668;2023-04-15T00:58:25;1.83;;;1.63;;
4023;SDS011;2026;51.002;13.668;2023-04-15T01:03:29;1.50;;;1.40;;
4023;SDS011;2026;51.002;13.668;2023-04-15T01:08:33;1.40;;;1.30;;
4023;SDS011;2026;51.002;13.668;2023-04-15T01:13:37;2.03;;;1.57;;
4023;SDS011;2026;51.002;13.668;2023-04-15T01:18:41;2.10;;;1.70;;
4023;SDS011;2026;51.002;13.668;2023-04-15T01:23:44;1.73;;;1.63;;
4023;SDS011;2026;51.002;13.668;2023-04-15T01:28:50;1.63;;;1.53;;
4023;SDS011;2026;51.002;13.668;2023-04-15T01:33:54;1.73;;;1.63;;
4023;SDS011;2026;51.002;13.668;2023-04-15T01:38:57;2.40;;;2.00;;
4023;SDS011;2026;51.002;13.668;2023-04-15T01:44:02;2.33;;;2.03;;
4023;SDS011;2026;51.002;13.668;2023-04-15T01:49:06;2.07;;;1.77;;
4023;SDS011;2026;51.002;13.668;2023-04-15T01:54:09;2.37;;;2.03;;
4023;SDS011;2026;51.002;13.668;2023-04-15T01:59:13;2.30;;;1.90;;
4023;SDS011;2026;51.002;13.668;2023-04-15T02:04:17;2.17;;;1.90;;
4023;SDS011;2026;51.002;13.668;2023-04-15T02:09:20;2.40;;;2.10;;
4023;SDS011;2026;51.002;13.668;2023-04-15T02:14:24;3.07;;;1.80;;
4023;SDS011;2026;51.002;13.668;2023-04-15T02:19:28;1.73;;;1.53;;
4023;SDS011;2026;51.002;13.668;2023-04-15T02:24:31;1.30;;;1.20;;
4023;SDS011;2026;51.002;13.668;2023-04-15T02:29:37;1.50;;;1.40;;
4023;SDS011;2026;51.002;13.668;2023-04-15T02:34:41;2.53;;;1.50;;
4023;SDS011;2026;51.002;13.668;2023-04-15T02:39:44;1.63;;;1.40;;
4023;SDS011;2026;51.002;13.668;2023-04-15T02:44:50;3.63;;;2.00;;
4023;SDS011;2026;51.002;13.668;2023-04-15T02:49:56;1.90;;;1.50;;
4023;SDS011;2026;51.002;13.668;2023-04-15T02:55:02;1.83;;;1.30;;
4023;SDS011;2026;51.002;13.668;2023-04-15T03:00:07;2.10;;;1.30;;
4023;SDS011;2026;51.002;13.668;2023-04-15T03:05:15;1.87;;;1.50;;
4023;SDS011;2026;51.002;13.668;2023-04-15T03:10:24;1.60;;;1.50;;
4023;SDS011;2026;51.002;13.668;2023-04-15T03:15:28;1.30;;;1.20;;
4023;SDS011;2026;51.002;13.668;2023-04-15T03:20:31;4.43;;;1.20;;
4023;SDS011;2026;51.002;13.668;2023-04-15T03:25:34;1.43;;;1.33;;
4023;SDS011;2026;51.002;13.668;2023-04-15T03:30:41;1.70;;;1.50;;
4023;SDS011;2026;51.002;13.668;2023-04-15T03:35:44;1.37;;;1.27;;
4023;SDS011;2026;51.002;13.668;2023-04-15T03:40:47;1.20;;;1.10;;
4023;SDS011;2026;51.002;13.668;2023-04-15T03:45:51;1.33;;;1.20;;
4023;SDS011;2026;51.002;13.668;2023-04-15T03:50:54;1.43;;;1.30;;
4023;SDS011;2026;51.002;13.668;2023-04-15T03:55:57;1.63;;;1.53;;
4023;SDS011;2026;51.002;13.668;2023-04-15T04:01:02;1.70;;;1.40;;
4023;SDS011;2026;51.002;13.668;2023-04-15T04:06:05;2.40;;;1.27;;
4023;SDS011;2026;51.002;13.668;2023-04-15T04:11:08;1.30;;;1.20;;
4023;SDS011;2026;51.002;13.668;2023-04-15T04:16:12;1.27;;;1.17;;
4023;SDS011;2026;51.002;13.668;2023-04-15T04:21:15;1.70;;;1.60;;
4023;SDS011;2026;51.002;13.668;2023-04-15T04:26:18;2.53;;;1.80;;
4023;SDS011;2026;51.002;13.668;2023-04-15T04:31:23;1.67;;;1.57;;
4023;SDS011;2026;51.002;13.668;2023-04-15T04:36:26;2.73;;;2.03;;
4023;SDS011;2026;51.002;13.668;2023-04-15T04:41:29;1.80;;;1.70;;
4023;SDS011;2026;51.002;13.668;2023-04-15T04:46:34;2.30;;;1.93;;
4023;SDS011;2026;51.002;13.668;2023-04-15T04:51:36;3.07;;;2.33;;
4023;SDS011;2026;51.002;13.668;2023-04-15T04:56:40;1.50;;;1.40;;
4023;SDS011;2026;51.002;13.668;2023-04-15T05:01:44;1.77;;;1.60;;
4023;SDS011;2026;51.002;13.668;2023-04-15T05:06:47;1.47;;;1.37;;
4023;SDS011;2026;51.002;13.668;2023-04-15T05:11:50;1.50;;;1.40;;
4023;SDS011;2026;51.002;13.668;2023-04-15T05:16:54;1.40;;;1.30;;
4023;SDS011;2026;51.002;13.668;2023-04-15T05:21:57;1.30;;;1.20;;
4023;SDS011;2026;51.002;13.668;2023-04-15T05:27:00;1.40;;;1.10;;
4023;SDS011;2026;51.002;13.668;2023-04-15T05:32:05;1.33;;;1.23;;
4023;SDS011;2026;51.002;13.668;2023-04-15T05:37:08;1.10;;;1.00;;
4023;SDS011;2026;51.002;13.668;2023-04-15T05:42:11;1.20;;;1.10;;
4023;SDS011;2026;51.002;13.668;2023-04-15T05:47:15;1.33;;;1.20;;
4023;SDS011;2026;51.002;13.668;2023-04-15T05:52:18;1.00;;;0.90;;
4023;SDS011;2026;51.002;13.668;2023-04-15T05:57:21;1.23;;;1.00;;
4023;SDS011;2026;51.002;13.668;2023-04-15T06:02:26;0.80;;;0.80;;
4023;SDS011;2026;51.002;13.668;2023-04-15T06:07:29;1.00;;;0.80;;
4023;SDS011;2026;51.002;13.668;2023-04-15T06:12:32;0.60;;;0.60;;
4023;SDS011;2026;51.002;13.668;2023-04-15T06:17:36;0.80;;;0.70;;
4023;SDS011;2026;51.002;13.668;2023-04-15T06:22:39;0.70;;;0.70;;
4023;SDS011;2026;51.002;13.668;2023-04-15T06:27:42;0.73;;;0.70;;
4023;SDS011;2026;51.002;13.668;2023-04-15T06:32:47;0.97;;;0.87;;
4023;SDS011;2026;51.002;13.668;2023-04-15T06:37:50;2.27;;;2.17;;
4023;SDS011;2026;51.002;13.668;2023-04-15T06:42:52;1.53;;;1.43;;
4023;SDS011;2026;51.002;13.668;2023-04-15T06:47:57;0.80;;;0.80;;
4023;SDS011;2026;51.002;13.668;2023-04-15T06:53:01;0.90;;;0.80;;
4023;SDS011;2026;51.002;13.668;2023-04-15T06:58:04;0.60;;;0.60;;
4023;SDS011;2026;51.002;13.668;2023-04-15T07:03:08;0.83;;;0.83;;
4023;SDS011;2026;51.002;13.668;2023-04-15T07:08:13;0.80;;;0.80;;
4023;SDS011;2026;51.002;13.668;2023-04-15T07:13:16;0.90;;;0.90;;
4023;SDS011;2026;51.002;13.668;2023-04-15T07:18:20;0.70;;;0.70;;
4023;SDS011;2026;51.002;13.668;2023-04-15T07:23:23;0.90;;;0.70;;
4023;SDS011;2026;51.002;13.668;2023-04-15T07:28:26;1.50;;;1.10;;
4023;SDS011;2026;51.002;13.668;2023-04-15T07:33:30;1.00;;;0.90;;
4023;SDS011;2026;51.002;13.668;2023-04-15T07:38:33;2.57;;;2.23;;
4023;SDS011;2026;51.002;13.668;2023-04-15T07:43:36;1.57;;;1.27;;
4023;SDS011;2026;51.002;13.668;2023-04-15T07:48:41;2.50;;;2.30;;
4023;SDS011;2026;51.002;13.668;2023-04-15T07:53:44;2.10;;;1.50;;
4023;SDS011;2026;51.002;13.668;2023-04-15T07:58:47;3.10;;;2.20;;
4023;SDS011;2026;51.002;13.668;2023-04-15T08:03:51;1.90;;;1.50;;
4023;SDS011;2026;51.002;13.668;2023-04-15T08:08:55;1.77;;;1.53;;
4023;SDS011;2026;51.002;13.668;2023-04-15T08:13:58;4.67;;;2.07;;
4023;SDS011;2026;51.002;13.668;2023-04-15T08:19:03;3.23;;;2.83;;
4023;SDS011;2026;51.002;13.668;2023-04-15T08:24:06;2.60;;;2.40;;
4023;SDS011;2026;51.002;13.668;2023-04-15T08:29:09;2.70;;;1.87;;
4023;SDS011;2026;51.002;13.668;2023-04-15T08:34:13;2.53;;;2.30;;
4023;SDS011;2026;51.002;13.668;2023-04-15T08:39:17;3.13;;;2.63;;
4023;SDS011;2026;51.002;13.668;2023-04-15T08:44:20;2.10;;;1.90;;
4023;SDS011;2026;51.002;13.668;2023-04-15T08:49:26;2.00;;;1.90;;
4023;SDS011;2026;51.002;13.668;2023-04-15T08:54:30;2.17;;;1.97;;
4023;SDS011;2026;51.002;13.668;2023-04-15T08:59:34;3.73;;;1.80;;
4023;SDS011;2026;51.002;13.668;2023-04-15T09:04:39;1.70;;;1.60;;
4023;SDS011;2026;51.002;13.668;2023-04-15T09:09:42;2.20;;;2.00;;
4023;SDS011;2026;51.002;13.668;2023-04-15T09:14:45;2.10;;;1.90;;
4023;SDS011;2026;51.002;13.668;2023-04-15T09:19:50;2.33;;;2.13;;
4023;SDS011;2026;51.002;13.668;2023-04-15T09:25:24;2.47;;;2.27;;
4023;SDS011;2026;51.002;13.668;2023-04-15T09:30:28;2.70;;;2.50;;
4023;SDS011;2026;51.002;13.668;2023-04-15T09:35:33;3.53;;;2.40;;
4023;SDS011;2026;51.002;13.668;2023-04-15T09:40:37;2.50;;;2.27;;
4023;SDS011;2026;51.002;13.668;2023-04-15T09:45:45;7.30;;;3.10;;
4023;SDS011;2026;51.002;13.668;2023-04-15T09:50:51;3.40;;;3.10;;
4023;SDS011;2026;51.002;13.668;2023-04-15T09:55:55;3.53;;;2.90;;
4023;SDS011;2026;51.002;13.668;2023-04-15T10:01:02;3.40;;;3.10;;
4023;SDS011;2026;51.002;13.668;2023-04-15T10:06:07;5.10;;;4.20;;
4023;SDS011;2026;51.002;13.668;2023-04-15T10:11:11;4.13;;;3.73;;
4023;SDS011;2026;51.002;13.668;2023-04-15T10:16:14;4.70;;;4.17;;
4023;SDS011;2026;51.002;13.668;2023-04-15T10:21:22;5.75;;;4.55;;
4023;SDS011;2026;51.002;13.668;2023-04-15T10:26:25;4.23;;;3.70;;
4023;SDS011;2026;51.002;13.668;2023-04-15T10:31:30;4.60;;;3.80;;
4023;SDS011;2026;51.002;13.668;2023-04-15T10:36:34;5.00;;;4.20;;
4023;SDS011;2026;51.002;13.668;2023-04-15T10:41:37;4.83;;;4.17;;
4023;SDS011;2026;51.002;13.668;2023-04-15T10:46:41;5.47;;;4.30;;
4023;SDS011;2026;51.002;13.668;2023-04-15T10:51:56;4.10;;;3.70;;
4023;SDS011;2026;51.002;13.668;2023-04-15T10:57:07;4.20;;;3.60;;
4023;SDS011;2026;51.002;13.668;2023-04-15T11:02:15;4.53;;;4.03;;
4023;SDS011;2026;51.002;13.668;2023-04-15T11:12:55;5.07;;;4.30;;
4023;SDS011;2026;51.002;13.668;2023-04-15T11:18:07;4.63;;;4.10;;
4023;SDS011;2026;51.002;13.668;2023-04-15T11:23:13;5.20;;;4.30;;
4023;SDS011;2026;51.002;13.668;2023-04-15T11:28:18;4.67;;;4.27;;
4023;SDS011;2026;51.002;13.668;2023-04-15T11:33:21;6.40;;;4.13;;
4023;SDS011;2026;51.002;13.668;2023-04-15T11:38:26;4.80;;;3.97;;
4023;SDS011;2026;51.002;13.668;2023-04-15T11:43:30;3.67;;;3.37;;
4023;SDS011;2026;51.002;13.668;2023-04-15T11:48:35;3.43;;;2.93;;
4023;SDS011;2026;51.002;13.668;2023-04-15T11:53:45;4.90;;;3.40;;
4023;SDS011;2026;51.002;13.668;2023-04-15T11:58:51;5.40;;;3.70;;
4023;SDS011;2026;51.002;13.668;2023-04-15T12:03:54;4.37;;;3.50;;
4023;SDS011;2026;51.002;13.668;2023-04-15T12:09:07;5.70;;;4.57;;
4023;SDS011;2026;51.002;13.668;2023-04-15T12:14:15;6.10;;;4.90;;
4023;SDS011;2026;51.002;13.668;2023-04-15T12:19:22;8.50;;;5.83;;
4023;SDS011;2026;51.002;13.668;2023-04-15T12:24:29;6.60;;;6.00;;
4023;SDS011;2026;51.002;13.668;2023-04-15T12:29:34;5.67;;;5.17;;
4023;SDS011;2026;51.002;13.668;2023-04-15T12:34:39;5.43;;;4.93;;
4023;SDS011;2026;51.002;13.668;2023-04-15T12:39:44;6.03;;;5.20;;
4023;SDS011;2026;51.002;13.668;2023-04-15T12:44:49;5.77;;;4.13;;
4023;SDS011;2026;51.002;13.668;2023-04-15T12:49:52;6.67;;;4.50;;
4023;SDS011;2026;51.002;13.668;2023-04-15T12:54:56;4.17;;;3.87;;
4023;SDS011;2026;51.002;13.668;2023-04-15T13:00:00;4.27;;;3.87;;
4023;SDS011;2026;51.002;13.668;2023-04-15T13:05:07;4.17;;;3.73;;
4023;SDS011;2026;51.002;13.668;2023-04-15T13:10:11;6.90;;;3.73;;
4023;SDS011;2026;51.002;13.668;2023-04-15T13:15:14;4.10;;;3.70;;
4023;SDS011;2026;51.002;13.668;2023-04-15T13:20:20;4.63;;;4.03;;
4023;SDS011;2026;51.002;13.668;2023-04-15T13:25:25;4.40;;;4.00;;
4023;SDS011;2026;51.002;13.668;2023-04-15T13:30:28;5.20;;;4.30;;
4023;SDS011;2026;51.002;13.668;2023-04-15T13:35:31;4.27;;;3.67;;
4023;SDS011;2026;51.002;13.668;2023-04-15T13:40:35;4.00;;;3.60;;
4023;SDS011;2026;51.002;13.668;2023-04-15T13:45:38;4.27;;;3.87;;
4023;SDS011;2026;51.002;13.668;2023-04-15T13:50:41;4.00;;;3.57;;
4023;SDS011;2026;51.002;13.668;2023-04-15T13:55:47;5.67;;;4.30;;
4023;SDS011;2026;51.002;13.668;2023-04-15T14:00:50;4.70;;;4.30;;
4023;SDS011;2026;51.002;13.668;2023-04-15T14:05:53;5.10;;;4.07;;
4023;SDS011;2026;51.002;13.668;2023-04-15T14:10:58;4.40;;;4.00;;
4023;SDS011;2026;51.002;13.668;2023-04-15T14:16:01;4.53;;;4.07;;
4023;SDS011;2026;51.002;13.668;2023-04-15T14:21:05;4.10;;;3.70;;
4023;SDS011;2026;51.002;13.668;2023-04-15T14:26:09;3.47;;;3.17;;
4023;SDS011;2026;51.002;13.668;2023-04-15T14:31:12;6.53;;;4.07;;
4023;SDS011;2026;51.002;13.668;2023-04-15T14:36:15;4.73;;;3.70;;
4023;SDS011;2026;51.002;13.668;2023-04-15T14:41:20;4.00;;;3.60;;
4023;SDS011;2026;51.002;13.668;2023-04-15T14:46:24;5.03;;;4.10;;
4023;SDS011;2026;51.002;13.668;2023-04-15T14:51:27;6.00;;;4.57;;
4023;SDS011;2026;51.002;13.668;2023-04-15T14:56:31;5.33;;;3.90;;
4023;SDS011;2026;51.002;13.668;2023-04-15T15:01:34;4.80;;;4.20;;
4023;SDS011;2026;51.002;13.668;2023-04-15T15:06:37;8.63;;;6.20;;
4023;SDS011;2026;51.002;13.668;2023-04-15T15:11:41;4.87;;;4.20;;
4023;SDS011;2026;51.002;13.668;2023-04-15T15:16:44;7.23;;;4.93;;
4023;SDS011;2026;51.002;13.668;2023-04-15T15:21:47;3.70;;;3.40;;
4023;SDS011;2026;51.002;13.668;2023-04-15T15:26:52;2.97;;;2.47;;
4023;SDS011;2026;51.002;13.668;2023-04-15T15:31:54;3.30;;;3.00;;
4023;SDS011;2026;51.002;13.668;2023-04-15T15:36:58;4.60;;;3.60;;
4023;SDS011;2026;51.002;13.668;2023-04-15T15:42:03;4.47;;;4.07;;
4023;SDS011;2026;51.002;13.668;2023-04-15T15:47:07;3.60;;;3.30;;
4023;SDS011;2026;51.002;13.668;2023-04-15T15:52:10;3.70;;;3.30;;
4023;SDS011;2026;51.002;13.668;2023-04-15T15:57:15;4.33;;;3.93;;
4023;SDS011;2026;51.002;13.668;2023-04-15T16:02:17;4.43;;;3.90;;
4023;SDS011;2026;51.002;13.668;2023-04-15T16:07:42;4.63;;;4.10;;
4023;SDS011;2026;51.002;13.668;2023-04-15T16:12:46;5.70;;;4.27;;
4023;SDS011;2026;51.002;13.668;2023-04-15T16:17:49;13.73;;;9.53;;
4023;SDS011;2026;51.002;13.668;2023-04-15T16:22:52;5.70;;;4.47;;
4023;SDS011;2026;51.002;13.668;2023-04-15T16:27:58;7.37;;;5.77;;
4023;SDS011;2026;51.002;13.668;2023-04-15T16:33:12;7.50;;;5.80;;
4023;SDS011;2026;51.002;13.668;2023-04-15T16:38:14;8.20;;;6.80;;
4023;SDS011;2026;51.002;13.668;2023-04-15T16:43:19;7.67;;;5.83;;
4023;SDS011;2026;51.002;13.668;2023-04-15T16:48:22;6.67;;;5.70;;
4023;SDS011;2026;51.002;13.668;2023-04-15T16:53:25;7.33;;;5.63;;
4023;SDS011;2026;51.002;13.668;2023-04-15T16:58:29;11.50;;;7.43;;
4023;SDS011;2026;51.002;13.668;2023-04-15T17:03:32;10.20;;;6.20;;
4023;SDS011;2026;51.002;13.668;2023-04-15T17:08:36;7.57;;;5.63;;
4023;SDS011;2026;51.002;13.668;2023-04-15T17:13:40;7.70;;;5.80;;
4023;SDS011;2026;51.002;13.668;2023-04-15T17:18:43;8.50;;;6.00;;
4023;SDS011;2026;51.002;13.668;2023-04-15T17:23:47;7.40;;;5.93;;
4023;SDS011;2026;51.002;13.668;2023-04-15T17:28:52;9.00;;;6.50;;
4023;SDS011;2026;51.002;13.668;2023-04-15T17:33:55;8.43;;;6.40;;
4023;SDS011;2026;51.002;13.668;2023-04-15T17:39:09;7.90;;;6.43;;
4023;SDS011;2026;51.002;13.668;2023-04-15T17:44:15;6.40;;;5.50;;
4023;SDS011;2026;51.002;13.668;2023-04-15T17:49:19;8.90;;;6.70;;
4023;SDS011;2026;51.002;13.668;2023-04-15T17:54:22;7.77;;;5.90;;
4023;SDS011;2026;51.002;13.668;2023-04-15T17:59:27;9.57;;;5.80;;
4023;SDS011;2026;51.002;13.668;2023-04-15T18:04:30;11.10;;;6.43;;
4023;SDS011;2026;51.002;13.668;2023-04-15T18:09:34;12.40;;;7.53;;
4023;SDS011;2026;51.002;13.668;2023-04-15T18:14:38;8.80;;;7.13;;
4023;SDS011;2026;51.002;13.668;2023-04-15T18:19:41;9.70;;;7.17;;
4023;SDS011;2026;51.002;13.668;2023-04-15T18:24:46;8.00;;;7.20;;
4023;SDS011;2026;51.002;13.668;2023-04-15T18:29:51;9.40;;;7.57;;
4023;SDS011;2026;51.002;13.668;2023-04-15T18:34:54;8.67;;;7.63;;
4023;SDS011;2026;51.002;13.668;2023-04-15T18:39:57;9.00;;;8.00;;
4023;SDS011;2026;51.002;13.668;2023-04-15T18:45:02;10.77;;;8.47;;
4023;SDS011;2026;51.002;13.668;2023-04-15T18:50:06;39.80;;;12.20;;
4023;SDS011;2026;51.002;13.668;2023-04-15T18:55:09;20.63;;;10.07;;
4023;SDS011;2026;51.002;13.668;2023-04-15T19:00:14;16.23;;;9.73;;
4023;SDS011;2026;51.002;13.668;2023-04-15T19:05:17;15.67;;;9.07;;
4023;SDS011;2026;51.002;13.668;2023-04-15T19:10:20;13.50;;;8.00;;
4023;SDS011;2026;51.002;13.668;2023-04-15T19:15:25;9.70;;;8.03;;
4023;SDS011;2026;51.002;13.668;2023-04-15T19:20:27;12.10;;;9.50;;
4023;SDS011;2026;51.002;13.668;2023-04-15T19:25:36;13.53;;;10.20;;
4023;SDS011;2026;51.002;13.668;2023-04-15T19:30:40;14.70;;;12.03;;
4023;SDS011;2026;51.002;13.668;2023-04-15T19:35:43;14.80;;;11.20;;
4023;SDS011;2026;51.002;13.668;2023-04-15T19:40:50;16.40;;;13.20;;
4023;SDS011;2026;51.002;13.668;2023-04-15T19:45:54;18.07;;;13.40;;
4023;SDS011;2026;51.002;13.668;2023-04-15T19:50:57;14.07;;;12.10;;
4023;SDS011;2026;51.002;13.668;2023-04-15T19:56:00;26.83;;;14.00;;
4023;SDS011;2026;51.002;13.668;2023-04-15T20:01:05;14.67;;;11.40;;
4023;SDS011;2026;51.002;13.668;2023-04-15T20:06:08;20.53;;;13.37;;
4023;SDS011;2026;51.002;13.668;2023-04-15T20:11:11;16.90;;;12.23;;
4023;SDS011;2026;51.002;13.668;2023-04-15T20:16:17;21.50;;;13.50;;
4023;SDS011;2026;51.002;13.668;2023-04-15T20:21:20;21.13;;;14.27;;
4023;SDS011;2026;51.002;13.668;2023-04-15T20:26:22;15.87;;;12.00;;
4023;SDS011;2026;51.002;13.668;2023-04-15T20:31:27;17.80;;;13.27;;
4023;SDS011;2026;51.002;13.668;2023-04-15T20:36:30;14.70;;;12.10;;
4023;SDS011;2026;51.002;13.668;2023-04-15T20:41:33;13.50;;;10.80;;
4023;SDS011;2026;51.002;13.668;2023-04-15T20:46:38;16.20;;;11.77;;
4023;SDS011;2026;51.002;13.668;2023-04-15T20:51:41;14.43;;;10.90;;
4023;SDS011;2026;51.002;13.668;2023-04-15T20:56:44;17.43;;;11.50;;
4023;SDS011;2026;51.002;13.668;2023-04-15T21:01:48;18.67;;;13.10;;
4023;SDS011;2026;51.002;13.668;2023-04-15T21:06:51;15.77;;;12.13;;
4023;SDS011;2026;51.002;13.668;2023-04-15T21:11:54;18.23;;;12.47;;
4023;SDS011;2026;51.002;13.668;2023-04-15T21:17:03;15.37;;;11.83;;
4023;SDS011;2026;51.002;13.668;2023-04-15T21:22:11;18.40;;;11.80;;
4023;SDS011;2026;51.002;13.668;2023-04-15T21:27:14;15.37;;;10.97;;
4023;SDS011;2026;51.002;13.668;2023-04-15T21:32:18;17.10;;;12.10;;
4023;SDS011;2026;51.002;13.668;2023-04-15T21:37:21;15.83;;;11.27;;
4023;SDS011;2026;51.002;13.668;2023-04-15T21:42:25;17.60;;;12.83;;
4023;SDS011;2026;51.002;13.668;2023-04-15T21:47:29;19.50;;;14.40;;
4023;SDS011;2026;51.002;13.668;2023-04-15T21:52:52;17.93;;;13.07;;
4023;SDS011;2026;51.002;13.668;2023-04-15T21:57:55;18.63;;;13.70;;
4023;SDS011;2026;51.002;13.668;2023-04-15T22:02:59;19.17;;;14.63;;
4023;SDS011;2026;51.002;13.668;2023-04-15T22:08:02;20.27;;;15.27;;
4023;SDS011;2026;51.002;13.668;2023-04-15T22:13:06;17.43;;;13.87;;
4023;SDS011;2026;51.002;13.668;2023-04-15T22:18:12;17.60;;;13.83;;
4023;SDS011;2026;51.002;13.668;2023-04-15T22:23:15;21.70;;;15.33;;
4023;SDS011;2026;51.002;13.668;2023-04-15T22:28:20;36.70;;;24.53;;
4023;SDS011;2026;51.002;13.668;2023-04-15T22:33:25;23.30;;;16.80;;
4023;SDS011;2026;51.002;13.668;2023-04-15T22:38:27;21.27;;;15.93;;
4023;SDS011;2026;51.002;13.668;2023-04-15T22:43:30;18.83;;;14.50;;
4023;SDS011;2026;51.002;13.668;2023-04-15T22:48:35;23.07;;;15.67;;
4023;SDS011;2026;51.002;13.668;2023-04-15T22:53:38;23.60;;;16.20;;
4023;SDS011;2026;51.002;13.668;2023-04-15T22:58:40;25.00;;;18.00;;
4023;SDS011;2026;51.002;13.668;2023-04-15T23:03:45;25.90;;;17.30;;
4023;SDS011;2026;51.002;13.668;2023-04-15T23:08:59;25.93;;;17.30;;
4023;SDS011;2026;51.002;13.668;2023-04-15T23:14:02;30.00;;;18.03;;
4023;SDS011;2026;51.002;13.668;2023-04-15T23:19:07;23.70;;;17.00;;
4023;SDS011;2026;51.002;13.668;2023-04-15T23:24:10;22.70;;;16.20;;
4023;SDS011;2026;51.002;13.668;2023-04-15T23:29:13;21.63;;;15.57;;
4023;SDS011;2026;51.002;13.668;2023-04-15T23:34:17;27.50;;;17.13;;
4023;SDS011;2026;51.002;13.668;2023-04-15T23:39:20;23.57;;;16.20;;
4023;SDS011;2026;51.002;13.668;2023-04-15T23:44:23;21.03;;;15.80;;
4023;SDS011;2026;51.002;13.668;2023-04-15T23:49:27;22.00;;;15.00;;
4023;SDS011;2026;51.002;13.668;2023-04-15T23:54:30;20.57;;;15.60;;
4023;SDS011;2026;51.002;13.668;2023-04-15T23:59:33;23.93;;;16.50;;
